createdAt,value
2018-06-22T00:00:37.251Z,66.66
2018-06-22T00:01:37.343Z,66.60
2018-06-22T00:02:37.436Z,66.38
2018-06-22T00:03:37.532Z,66.89
2018-06-22T00:04:37.626Z,66.99
2018-06-22T00:05:37.722Z,66.70
2018-06-22T00:06:37.820Z,66.89
2018-06-22T00:07:37.916Z,66.70
2018-06-22T00:08:38.012Z,67.18
2018-06-22T00:09:38.134Z,66.99
2018-06-22T00:10:38.229Z,66.60
2018-06-22T00:11:38.323Z,66.31
2018-06-22T00:12:38.421Z,66.76
2018-06-22T00:13:38.513Z,66.85
2018-06-22T00:14:38.610Z,66.56
2018-06-22T00:15:38.705Z,67.14
2018-06-22T00:16:38.802Z,67.52
2018-06-22T00:17:38.898Z,67.62
2018-06-22T00:18:38.992Z,67.14
2018-06-22T00:19:39.086Z,67.52
2018-06-22T00:20:39.183Z,67.24
2018-06-22T00:21:39.279Z,66.76
2018-06-22T00:22:39.376Z,67.08
2018-06-22T00:23:39.473Z,66.70
2018-06-22T00:24:39.571Z,66.95
2018-06-22T00:25:39.664Z,66.79
2018-06-22T00:26:39.760Z,66.19
2018-06-22T00:27:39.856Z,66.60
2018-06-22T00:28:39.953Z,65.93
2018-06-22T00:29:40.065Z,66.22
2018-06-22T00:30:40.160Z,66.03
2018-06-22T00:31:40.254Z,65.45
2018-06-22T00:32:40.352Z,66.03
2018-06-22T00:33:40.449Z,66.22
2018-06-22T00:34:40.544Z,65.84
2018-06-22T00:35:40.641Z,65.74
2018-06-22T00:36:40.741Z,65.55
2018-06-22T00:37:40.833Z,65.45
2018-06-22T00:38:40.935Z,65.45
2018-06-22T00:39:41.027Z,65.74
2018-06-22T00:40:41.122Z,65.36
2018-06-22T00:41:41.216Z,65.55
2018-06-22T00:42:41.314Z,65.45
2018-06-22T00:43:41.405Z,65.45
2018-06-22T00:44:41.500Z,65.55
2018-06-22T00:45:41.596Z,65.55
2018-06-22T00:46:41.693Z,65.64
2018-06-22T00:47:41.788Z,65.84
2018-06-22T00:48:41.883Z,65.45
2018-06-22T00:49:41.996Z,66.03
2018-06-22T00:50:42.091Z,66.13
2018-06-22T00:51:42.187Z,66.03
2018-06-22T00:52:42.282Z,65.74
2018-06-22T00:53:42.380Z,66.13
2018-06-22T00:54:42.476Z,66.41
2018-06-22T00:55:42.571Z,66.13
2018-06-22T00:56:42.668Z,66.22
2018-06-22T00:57:42.751Z,66.22
2018-06-22T00:58:42.847Z,66.41
2018-06-22T00:59:42.942Z,66.89
2018-06-22T01:00:43.037Z,66.28
2018-06-22T01:01:43.137Z,66.56
2018-06-22T01:02:43.230Z,66.19
2018-06-22T01:03:43.324Z,66.66
2018-06-22T01:04:43.420Z,66.66
2018-06-22T01:05:43.515Z,66.85
2018-06-22T01:06:43.610Z,66.95
2018-06-22T01:07:43.707Z,66.56
2018-06-22T01:08:43.803Z,67.05
2018-06-22T01:09:43.901Z,66.66
2018-06-22T01:10:43.998Z,66.76
2018-06-22T01:11:44.095Z,66.66
2018-06-22T01:12:44.194Z,66.76
2018-06-22T01:13:44.286Z,66.09
2018-06-22T01:14:44.383Z,66.76
2018-06-22T01:15:44.482Z,66.19
2018-06-22T01:16:44.574Z,66.95
2018-06-22T01:17:44.670Z,66.76
2018-06-22T01:18:44.765Z,66.47
2018-06-22T01:19:44.861Z,66.95
2018-06-22T01:20:44.960Z,67.05
2018-06-22T01:21:45.057Z,66.85
2018-06-22T01:22:45.153Z,66.85
2018-06-22T01:23:45.251Z,66.47
2018-06-22T01:24:45.347Z,66.38
2018-06-22T01:25:45.445Z,66.76
2018-06-22T01:26:45.541Z,64.37
2018-06-22T01:27:45.640Z,64.09
2018-06-22T01:28:45.736Z,63.80
2018-06-22T01:29:45.829Z,63.89
2018-06-22T01:30:45.928Z,63.99
2018-06-22T01:31:46.027Z,63.42
2018-06-22T01:32:46.124Z,64.09
2018-06-22T01:33:46.217Z,63.80
2018-06-22T01:34:46.316Z,63.13
2018-06-22T01:35:46.412Z,63.32
2018-06-22T01:36:46.500Z,63.03
2018-06-22T01:37:46.604Z,63.13
2018-06-22T01:38:46.693Z,63.32
2018-06-22T01:39:46.782Z,63.23
2018-06-22T01:40:46.874Z,62.75
2018-06-22T01:41:46.966Z,63.03
2018-06-22T01:42:47.056Z,63.13
2018-06-22T01:43:47.143Z,62.55
2018-06-22T01:44:47.240Z,62.75
2018-06-22T01:45:47.337Z,62.75
2018-06-22T01:46:47.423Z,62.75
2018-06-22T01:47:47.527Z,62.75
2018-06-22T01:48:47.620Z,63.03
2018-06-22T01:49:47.712Z,62.46
2018-06-22T01:50:47.802Z,62.46
2018-06-22T01:51:47.905Z,62.84
2018-06-22T01:52:47.988Z,62.75
2018-06-22T01:53:48.074Z,62.84
2018-06-22T01:54:48.160Z,62.84
2018-06-22T01:55:48.254Z,62.37
2018-06-22T01:56:48.351Z,62.46
2018-06-22T01:57:48.438Z,62.84
2018-06-22T01:58:48.522Z,62.37
2018-06-22T01:59:48.633Z,62.75
2018-06-22T02:00:48.731Z,61.79
2018-06-22T02:01:48.821Z,62.46
2018-06-22T02:02:48.911Z,62.18
2018-06-22T02:03:49.005Z,62.65
2018-06-22T02:04:49.102Z,62.49
2018-06-22T02:05:49.223Z,62.01
2018-06-22T02:06:49.286Z,61.92
2018-06-22T02:07:49.383Z,61.92
2018-06-22T02:08:49.471Z,62.01
2018-06-22T02:09:49.574Z,62.11
2018-06-22T02:10:49.652Z,61.92
2018-06-22T02:11:49.740Z,61.92
2018-06-22T02:12:49.842Z,61.92
2018-06-22T02:13:49.925Z,62.01
2018-06-22T02:14:50.028Z,61.92
2018-06-22T02:15:50.115Z,62.01
2018-06-22T02:16:50.206Z,62.78
2018-06-22T02:17:50.307Z,62.40
2018-06-22T02:18:50.404Z,62.87
2018-06-22T02:19:50.506Z,63.26
2018-06-22T02:20:50.593Z,62.68
2018-06-22T02:21:50.679Z,62.97
2018-06-22T02:22:50.787Z,63.26
2018-06-22T02:23:50.883Z,62.87
2018-06-22T02:24:50.971Z,62.68
2018-06-22T02:25:51.066Z,62.30
2018-06-22T02:26:51.155Z,62.59
2018-06-22T02:27:51.262Z,62.01
2018-06-22T02:28:51.369Z,61.92
2018-06-22T02:29:51.466Z,62.11
2018-06-22T02:30:51.559Z,61.72
2018-06-22T02:31:51.663Z,62.49
2018-06-22T02:32:51.759Z,62.59
2018-06-22T02:33:51.846Z,62.59
2018-06-22T02:34:51.938Z,62.97
2018-06-22T02:35:52.036Z,62.59
2018-06-22T02:36:52.126Z,62.08
2018-06-22T02:37:52.222Z,61.72
2018-06-22T02:38:52.323Z,61.98
2018-06-22T02:39:52.408Z,62.01
2018-06-22T02:40:52.519Z,61.44
2018-06-22T02:41:52.620Z,61.51
2018-06-22T02:42:52.716Z,61.69
2018-06-22T02:43:52.819Z,61.41
2018-06-22T02:44:52.914Z,61.51
2018-06-22T02:45:53.013Z,61.69
2018-06-22T02:46:53.108Z,61.51
2018-06-22T02:47:53.208Z,61.60
2018-06-22T02:48:53.314Z,61.13
2018-06-22T02:49:53.408Z,61.03
2018-06-22T02:50:53.514Z,59.98
2018-06-22T02:51:53.618Z,60.46
2018-06-22T02:52:53.717Z,60.55
2018-06-22T02:53:53.812Z,60.55
2018-06-22T02:54:53.917Z,60.49
2018-06-22T02:55:53.994Z,60.68
2018-06-22T02:56:54.108Z,60.10
2018-06-22T02:57:54.196Z,60.39
2018-06-22T02:58:54.298Z,60.58
2018-06-22T02:59:54.425Z,60.64
2018-06-22T03:00:54.482Z,61.51
2018-06-22T03:01:54.612Z,61.60
2018-06-22T03:02:54.724Z,61.89
2018-06-22T03:03:54.823Z,61.72
2018-06-22T03:04:54.920Z,61.79
2018-06-22T03:05:55.019Z,62.30
2018-06-22T03:06:55.115Z,62.78
2018-06-22T03:07:55.211Z,62.78
2018-06-22T03:08:55.325Z,62.84
2018-06-22T03:09:55.427Z,62.84
2018-06-22T03:10:55.521Z,63.03
2018-06-22T03:11:55.616Z,63.32
2018-06-22T03:12:55.718Z,63.89
2018-06-22T03:13:55.814Z,64.09
2018-06-22T03:14:55.929Z,63.89
2018-06-22T03:15:56.041Z,64.56
2018-06-22T03:16:56.133Z,64.37
2018-06-22T03:17:56.231Z,64.75
2018-06-22T03:18:56.324Z,64.47
2018-06-22T03:19:56.420Z,64.56
2018-06-22T03:20:56.519Z,64.94
2018-06-22T03:21:56.613Z,65.04
2018-06-22T03:22:56.709Z,65.04
2018-06-22T03:23:56.804Z,65.04
2018-06-22T03:24:56.897Z,65.23
2018-06-22T03:25:56.994Z,65.42
2018-06-22T03:26:57.090Z,65.52
2018-06-22T03:27:57.183Z,65.23
2018-06-22T03:28:57.284Z,64.85
2018-06-22T03:29:57.382Z,65.23
2018-06-22T03:30:57.477Z,65.23
2018-06-22T03:31:57.625Z,64.85
2018-06-22T03:32:57.666Z,64.56
2018-06-22T03:33:57.763Z,64.37
2018-06-22T03:34:57.863Z,64.65
2018-06-22T03:35:57.962Z,64.56
2018-06-22T03:36:58.057Z,64.09
2018-06-22T03:37:58.169Z,64.47
2018-06-22T03:38:58.240Z,64.56
2018-06-22T03:39:58.338Z,64.37
2018-06-22T03:40:58.433Z,64.18
2018-06-22T03:41:58.529Z,64.09
2018-06-22T03:42:58.616Z,64.37
2018-06-22T03:43:58.710Z,64.47
2018-06-22T03:44:58.806Z,64.75
2018-06-22T03:45:58.903Z,64.47
2018-06-22T03:46:59.001Z,64.47
2018-06-22T03:47:59.095Z,64.47
2018-06-22T03:48:59.196Z,64.47
2018-06-22T03:49:59.295Z,64.28
2018-06-22T03:50:59.392Z,64.56
2018-06-22T03:51:59.490Z,65.14
2018-06-22T03:52:59.581Z,64.85
2018-06-22T03:53:59.682Z,65.14
2018-06-22T03:54:59.773Z,64.94
2018-06-22T03:55:59.875Z,64.94
2018-06-22T03:56:59.967Z,64.94
2018-06-22T03:58:00.062Z,64.65
2018-06-22T03:59:00.158Z,64.47
2018-06-22T04:00:00.255Z,64.47
2018-06-22T04:01:00.350Z,64.28
2018-06-22T04:02:00.449Z,64.28
2018-06-22T04:03:00.544Z,64.37
2018-06-22T04:04:00.635Z,64.28
2018-06-22T04:05:00.734Z,64.28
2018-06-22T04:06:00.826Z,64.09
2018-06-22T04:07:00.922Z,64.37
2018-06-22T04:08:01.022Z,64.56
2018-06-22T04:09:01.165Z,64.65
2018-06-22T04:10:01.219Z,63.60
2018-06-22T04:11:01.316Z,63.89
2018-06-22T04:12:01.410Z,63.80
2018-06-22T04:13:01.507Z,63.99
2018-06-22T04:14:01.602Z,63.89
2018-06-22T04:15:01.700Z,64.37
2018-06-22T04:16:01.802Z,64.09
2018-06-22T04:17:01.899Z,64.47
2018-06-22T04:18:01.991Z,64.28
2018-06-22T04:19:02.090Z,65.04
2018-06-22T04:20:02.186Z,64.75
2018-06-22T04:21:02.281Z,65.04
2018-06-22T04:22:02.376Z,65.61
2018-06-22T04:23:02.473Z,65.42
2018-06-22T04:24:02.568Z,65.52
2018-06-22T04:25:02.663Z,65.90
2018-06-22T04:26:02.768Z,66.09
2018-06-22T04:27:02.858Z,65.90
2018-06-22T04:28:02.953Z,66.15
2018-06-22T04:29:03.049Z,66.63
2018-06-22T04:30:03.146Z,66.72
2018-06-22T04:31:03.244Z,66.95
2018-06-22T04:32:03.341Z,66.28
2018-06-22T04:33:03.433Z,66.25
2018-06-22T04:34:03.530Z,66.72
2018-06-22T04:35:03.623Z,67.11
2018-06-22T04:36:03.714Z,67.21
2018-06-22T04:37:03.817Z,67.30
2018-06-22T04:38:03.913Z,67.11
2018-06-22T04:39:04.010Z,67.49
2018-06-22T04:40:04.109Z,66.82
2018-06-22T04:41:04.203Z,67.21
2018-06-22T04:42:04.299Z,67.11
2018-06-22T04:43:04.394Z,68.06
2018-06-22T04:44:04.490Z,67.49
2018-06-22T04:45:04.634Z,67.30
2018-06-22T04:46:04.732Z,67.43
2018-06-22T04:47:04.825Z,67.05
2018-06-22T04:48:04.920Z,66.47
2018-06-22T04:49:05.016Z,66.95
2018-06-22T04:50:05.112Z,66.19
2018-06-22T04:51:05.212Z,66.19
2018-06-22T04:52:05.306Z,66.38
2018-06-22T04:53:05.401Z,66.56
2018-06-22T04:54:05.499Z,66.28
2018-06-22T04:55:05.602Z,66.66
2018-06-22T04:56:05.698Z,66.56
2018-06-22T04:57:05.790Z,66.85
2018-06-22T04:58:05.885Z,66.85
2018-06-22T04:59:05.981Z,66.95
2018-06-22T05:00:06.076Z,68.10
2018-06-22T05:01:06.176Z,68.67
2018-06-22T05:02:06.266Z,69.15
2018-06-22T05:03:06.361Z,69.53
2018-06-22T05:04:06.456Z,69.72
2018-06-22T05:05:06.552Z,70.20
2018-06-22T05:06:06.648Z,70.87
2018-06-22T05:07:06.744Z,71.44
2018-06-22T05:08:06.842Z,70.29
2018-06-22T05:09:06.939Z,71.06
2018-06-22T05:10:07.036Z,71.25
2018-06-22T05:11:07.131Z,71.82
2018-06-22T05:12:07.231Z,71.44
2018-06-22T05:13:07.326Z,72.20
2018-06-22T05:14:07.422Z,72.20
2018-06-22T05:15:07.518Z,71.53
2018-06-22T05:16:07.616Z,71.69
2018-06-22T05:17:07.714Z,72.64
2018-06-22T05:18:07.808Z,73.41
2018-06-22T05:19:07.905Z,73.12
2018-06-22T05:20:08.002Z,73.32
2018-06-22T05:21:08.100Z,73.16
2018-06-22T05:22:08.197Z,72.78
2018-06-22T05:23:08.365Z,73.16
2018-06-22T05:24:08.336Z,72.74
2018-06-22T05:25:08.433Z,73.32
2018-06-22T05:26:08.528Z,73.32
2018-06-22T05:27:08.625Z,73.41
2018-06-22T05:28:08.723Z,73.98
2018-06-22T05:29:08.824Z,74.30
2018-06-22T05:30:08.917Z,74.30
2018-06-22T05:31:09.016Z,73.63
2018-06-22T05:32:09.115Z,73.35
2018-06-22T05:33:09.207Z,73.44
2018-06-22T05:34:09.303Z,73.25
2018-06-22T05:35:09.400Z,72.68
2018-06-22T05:36:09.501Z,73.25
2018-06-22T05:37:09.590Z,73.60
2018-06-22T05:38:09.686Z,74.74
2018-06-22T05:39:09.782Z,74.46
2018-06-22T05:40:09.879Z,75.22
2018-06-22T05:41:09.984Z,75.03
2018-06-22T05:42:10.107Z,75.32
2018-06-22T05:43:10.185Z,75.42
2018-06-22T05:44:10.287Z,75.51
2018-06-22T05:45:10.375Z,76.46
2018-06-22T05:46:10.471Z,76.37
2018-06-22T05:47:10.568Z,76.27
2018-06-22T05:48:10.665Z,75.32
2018-06-22T05:49:10.759Z,75.51
2018-06-22T05:50:10.855Z,75.79
2018-06-22T05:51:10.953Z,75.60
2018-06-22T05:52:11.052Z,75.51
2018-06-22T05:53:11.147Z,74.74
2018-06-22T05:54:11.243Z,75.03
2018-06-22T05:55:11.343Z,75.03
2018-06-22T05:56:11.437Z,75.26
2018-06-22T05:57:11.537Z,75.03
2018-06-22T05:58:11.630Z,75.51
2018-06-22T05:59:11.729Z,75.32
2018-06-22T06:00:11.825Z,75.32
2018-06-22T06:01:11.920Z,75.51
2018-06-22T06:02:12.017Z,75.22
2018-06-22T06:03:12.115Z,75.22
2018-06-22T06:04:12.212Z,74.93
2018-06-22T06:05:12.309Z,75.51
2018-06-22T06:06:12.404Z,76.08
2018-06-22T06:07:12.500Z,76.27
2018-06-22T06:08:12.601Z,75.70
2018-06-22T06:09:12.720Z,76.65
2018-06-22T06:10:12.814Z,77.32
2018-06-22T06:11:13.011Z,76.84
2018-06-22T06:12:13.005Z,76.65
2018-06-22T06:13:13.100Z,76.37
2018-06-22T06:14:13.197Z,76.46
2018-06-22T06:15:13.293Z,77.08
2018-06-22T06:16:13.394Z,76.69
2018-06-22T06:17:13.487Z,76.46
2018-06-22T06:18:13.584Z,76.56
2018-06-22T06:19:13.686Z,77.23
2018-06-22T06:20:13.784Z,77.70
2018-06-22T06:21:13.878Z,78.28
2018-06-22T06:22:13.973Z,77.61
2018-06-22T06:23:14.069Z,78.37
2018-06-22T06:24:14.163Z,78.28
2018-06-22T06:25:14.264Z,77.80
2018-06-22T06:26:14.357Z,77.13
2018-06-22T06:27:14.469Z,78.03
2018-06-22T06:28:14.551Z,78.28
2018-06-22T06:29:14.656Z,77.03
2018-06-22T06:30:14.749Z,77.65
2018-06-22T06:31:14.848Z,77.94
2018-06-22T06:32:14.944Z,77.17
2018-06-22T06:33:15.039Z,77.17
2018-06-22T06:34:15.148Z,77.03
2018-06-22T06:35:15.231Z,78.18
2018-06-22T06:36:15.327Z,78.51
2018-06-22T06:37:15.423Z,78.09
2018-06-22T06:38:15.521Z,78.66
2018-06-22T06:39:15.616Z,79.33
2018-06-22T06:40:15.714Z,78.37
2018-06-22T06:41:15.813Z,79.04
2018-06-22T06:42:15.907Z,78.99
2018-06-22T06:43:15.998Z,78.89
2018-06-22T06:44:16.093Z,78.31
2018-06-22T06:45:16.202Z,78.99
2018-06-22T06:46:16.300Z,78.99
2018-06-22T06:47:16.391Z,79.94
2018-06-22T06:48:16.478Z,80.13
2018-06-22T06:49:16.577Z,80.41
2018-06-22T06:50:16.737Z,78.75
2018-06-22T06:51:16.722Z,80.38
2018-06-22T06:52:16.911Z,80.95
2018-06-22T06:53:16.943Z,80.85
2018-06-22T06:54:17.052Z,80.28
2018-06-22T06:55:17.158Z,79.19
2018-06-22T06:56:17.251Z,81.38
2018-06-22T06:57:17.450Z,82.19
2018-06-22T06:58:17.427Z,82.09
2018-06-22T06:59:17.523Z,82.43
2018-06-22T07:00:17.631Z,83.05
2018-06-22T07:01:17.728Z,83.34
2018-06-22T07:02:17.812Z,82.86
2018-06-22T07:03:17.920Z,81.62
2018-06-22T07:04:18.016Z,82.29
2018-06-22T07:05:18.104Z,82.48
2018-06-22T07:06:18.194Z,82.48
2018-06-22T07:07:18.292Z,81.43
2018-06-22T07:08:18.372Z,82.19
2018-06-22T07:09:18.532Z,82.32
2018-06-22T07:10:18.529Z,80.90
2018-06-22T07:11:18.640Z,79.56
2018-06-22T07:12:18.723Z,80.32
2018-06-22T07:13:18.812Z,80.90
2018-06-22T07:14:18.950Z,80.32
2018-06-22T07:15:18.978Z,80.41
2018-06-22T07:16:19.101Z,79.65
2018-06-22T07:17:19.208Z,78.70
2018-06-22T07:18:19.306Z,78.51
2018-06-22T07:19:19.392Z,79.36
2018-06-22T07:20:19.476Z,78.99
2018-06-22T07:21:19.579Z,79.08
2018-06-22T07:22:19.915Z,78.79
2018-06-22T07:23:19.772Z,78.31
2018-06-22T07:24:19.867Z,79.27
2018-06-22T07:25:19.985Z,80.51
2018-06-22T07:26:20.075Z,80.47
2018-06-22T07:27:20.174Z,80.66
2018-06-22T07:28:20.268Z,81.04
2018-06-22T07:29:20.370Z,81.27
2018-06-22T07:30:20.540Z,81.76
2018-06-22T07:31:20.528Z,81.24
2018-06-22T07:32:20.637Z,80.76
2018-06-22T07:33:20.732Z,82.00
2018-06-22T07:34:20.961Z,82.19
2018-06-22T07:35:20.909Z,82.38
2018-06-22T07:36:21.011Z,82.61
2018-06-22T07:37:21.115Z,83.00
2018-06-22T07:38:21.203Z,81.95
2018-06-22T07:39:21.304Z,81.37
2018-06-22T07:40:21.406Z,80.61
2018-06-22T07:41:21.488Z,81.18
2018-06-22T07:42:21.572Z,81.66
2018-06-22T07:43:21.685Z,81.47
2018-06-22T07:44:21.788Z,81.47
2018-06-22T07:45:21.891Z,80.80
2018-06-22T07:46:21.992Z,81.56
2018-06-22T07:47:22.115Z,81.18
2018-06-22T07:48:22.207Z,80.61
2018-06-22T07:49:22.342Z,80.61
2018-06-22T07:50:22.429Z,81.43
2018-06-22T07:51:22.560Z,81.33
2018-06-22T07:52:22.649Z,82.61
2018-06-22T07:53:22.745Z,82.61
2018-06-22T07:54:22.831Z,83.28
2018-06-22T07:55:22.953Z,83.28
2018-06-22T07:56:23.053Z,82.19
2018-06-22T07:57:23.149Z,82.61
2018-06-22T07:58:23.245Z,81.95
2018-06-22T07:59:23.341Z,82.38
2018-06-22T08:00:23.445Z,82.23
2018-06-22T08:01:23.541Z,81.95
2018-06-22T08:02:23.638Z,82.42
2018-06-22T08:03:23.754Z,82.81
2018-06-22T08:04:23.857Z,82.23
2018-06-22T08:05:23.949Z,82.42
2018-06-22T08:06:24.026Z,81.99
2018-06-22T08:07:24.120Z,80.93
2018-06-22T08:08:24.228Z,81.51
2018-06-22T08:09:24.326Z,81.79
2018-06-22T08:10:24.433Z,81.32
2018-06-22T08:11:24.527Z,81.03
2018-06-22T08:12:24.627Z,80.36
2018-06-22T08:13:24.736Z,79.79
2018-06-22T08:14:24.829Z,78.31
2018-06-22T08:15:24.933Z,79.88
2018-06-22T08:16:25.029Z,79.50
2018-06-22T08:17:25.151Z,80.17
2018-06-22T08:18:25.245Z,79.60
2018-06-22T08:19:25.355Z,79.25
2018-06-22T08:20:25.482Z,78.49
2018-06-22T08:21:25.565Z,78.78
2018-06-22T08:22:25.685Z,78.78
2018-06-22T08:23:25.778Z,79.25
2018-06-22T08:24:25.857Z,77.72
2018-06-22T08:25:25.956Z,77.72
2018-06-22T08:26:26.075Z,78.39
2018-06-22T08:27:26.180Z,78.39
2018-06-22T08:28:26.298Z,77.92
2018-06-22T08:29:26.387Z,77.34
2018-06-22T08:30:26.494Z,78.30
2018-06-22T08:31:26.578Z,78.11
2018-06-22T08:32:26.666Z,78.01
2018-06-22T08:33:26.762Z,76.86
2018-06-22T08:34:26.857Z,78.39
2018-06-22T08:35:26.979Z,77.53
2018-06-22T08:36:27.062Z,78.30
2018-06-22T08:37:27.171Z,78.68
2018-06-22T08:38:27.269Z,78.58
2018-06-22T08:39:27.367Z,78.11
2018-06-22T08:40:27.465Z,76.96
2018-06-22T08:41:27.595Z,76.77
2018-06-22T08:42:27.633Z,77.25
2018-06-22T08:43:27.734Z,77.34
2018-06-22T08:44:27.828Z,77.92
2018-06-22T08:45:27.919Z,78.39
2018-06-22T08:46:28.033Z,77.82
2018-06-22T08:47:28.135Z,77.72
2018-06-22T08:48:28.231Z,76.96
2018-06-22T08:49:28.325Z,78.49
2018-06-22T08:50:28.417Z,78.11
2018-06-22T08:51:28.507Z,78.01
2018-06-22T08:52:28.605Z,77.95
2018-06-22T08:53:28.702Z,78.01
2018-06-22T08:54:28.800Z,77.76
2018-06-22T08:55:28.909Z,77.25
2018-06-22T08:56:29.001Z,77.19
2018-06-22T08:57:29.098Z,76.90
2018-06-22T08:58:29.193Z,76.62
2018-06-22T08:59:29.287Z,77.42
2018-06-22T09:00:29.399Z,77.90
2018-06-22T09:01:29.495Z,77.90
2018-06-22T09:02:29.595Z,76.84
2018-06-22T09:03:29.682Z,77.08
2018-06-22T09:04:29.791Z,75.64
2018-06-22T09:05:29.890Z,74.68
2018-06-22T09:06:29.980Z,74.87
2018-06-22T09:07:30.061Z,72.96
2018-06-22T09:08:30.170Z,73.15
2018-06-22T09:09:30.323Z,74.30
2018-06-22T09:10:30.420Z,74.97
2018-06-22T09:11:30.508Z,74.77
2018-06-22T09:12:30.608Z,75.07
2018-06-22T09:13:30.694Z,74.30
2018-06-22T09:14:30.815Z,74.01
2018-06-22T09:15:30.904Z,74.97
2018-06-22T09:16:31.004Z,75.16
2018-06-22T09:17:31.105Z,76.12
2018-06-22T09:18:31.222Z,76.60
2018-06-22T09:19:31.365Z,75.93
2018-06-22T09:20:31.409Z,74.49
2018-06-22T09:21:31.502Z,74.30
2018-06-22T09:22:31.623Z,74.87
2018-06-22T09:23:31.718Z,75.07
2018-06-22T09:24:31.814Z,75.07
2018-06-22T09:25:31.947Z,75.35
2018-06-22T09:26:32.039Z,75.73
2018-06-22T09:27:32.136Z,74.20
2018-06-22T09:28:32.247Z,73.63
2018-06-22T09:29:32.370Z,72.77
2018-06-22T09:30:32.467Z,71.71
2018-06-22T09:31:32.565Z,73.15
2018-06-22T09:32:32.660Z,72.86
2018-06-22T09:33:32.760Z,72.67
2018-06-22T09:34:32.860Z,72.86
2018-06-22T09:35:32.958Z,75.29
2018-06-22T09:36:33.057Z,73.38
2018-06-22T09:37:33.156Z,74.05
2018-06-22T09:38:33.253Z,72.42
2018-06-22T09:39:33.363Z,72.17
2018-06-22T09:40:33.460Z,71.59
2018-06-22T09:41:33.563Z,71.72
2018-06-22T09:42:33.710Z,71.92
2018-06-22T09:43:33.756Z,70.00
2018-06-22T09:44:33.855Z,70.29
2018-06-22T09:45:33.953Z,69.23
2018-06-22T09:46:34.072Z,67.54
2018-06-22T09:47:34.171Z,71.66
2018-06-22T09:48:34.323Z,71.08
2018-06-22T09:49:34.370Z,70.98
2018-06-22T09:50:34.469Z,70.60
2018-06-22T09:51:34.567Z,70.98
2018-06-22T09:52:34.665Z,71.08
2018-06-22T09:53:34.778Z,71.27
2018-06-22T09:54:34.881Z,71.17
2018-06-22T09:55:34.982Z,71.56
2018-06-22T09:56:35.079Z,70.85
2018-06-22T09:57:35.175Z,70.98
2018-06-22T09:58:35.273Z,71.46
2018-06-22T09:59:35.372Z,73.28
2018-06-22T10:00:35.470Z,71.56
2018-06-22T10:01:35.571Z,71.27
2018-06-22T10:02:35.666Z,70.79
2018-06-22T10:03:35.770Z,71.56
2018-06-22T10:04:35.871Z,72.80
2018-06-22T10:05:35.967Z,72.90
2018-06-22T10:06:36.067Z,73.09
2018-06-22T10:07:36.171Z,74.05
2018-06-22T10:08:36.266Z,74.40
2018-06-22T10:09:36.364Z,75.70
2018-06-22T10:10:36.464Z,76.94
2018-06-22T10:11:36.564Z,77.90
2018-06-22T10:12:36.663Z,77.65
2018-06-22T10:13:36.818Z,76.79
2018-06-22T10:14:36.851Z,77.94
2018-06-22T10:15:36.947Z,76.46
2018-06-22T10:16:37.050Z,78.47
2018-06-22T10:17:37.144Z,79.24
2018-06-22T10:18:37.241Z,78.42
2018-06-22T10:19:37.372Z,79.37
2018-06-22T10:20:37.440Z,78.51
2018-06-22T10:21:37.531Z,79.28
2018-06-22T10:22:37.631Z,78.84
2018-06-22T10:23:37.744Z,76.35
2018-06-22T10:24:37.830Z,76.64
2018-06-22T10:25:37.927Z,75.68
2018-06-22T10:26:38.024Z,74.05
2018-06-22T10:27:38.145Z,75.23
2018-06-22T10:28:38.247Z,76.00
2018-06-22T10:29:38.354Z,76.42
2018-06-22T10:30:38.452Z,77.58
2018-06-22T10:31:38.557Z,74.31
2018-06-22T10:32:38.656Z,73.16
2018-06-22T10:33:38.757Z,73.83
2018-06-22T10:34:38.856Z,74.51
2018-06-22T10:35:38.953Z,72.88
2018-06-22T10:36:39.053Z,72.11
2018-06-22T10:37:39.151Z,71.21
2018-06-22T10:38:39.255Z,72.49
2018-06-22T10:39:39.347Z,71.92
2018-06-22T10:40:39.448Z,72.39
2018-06-22T10:41:39.566Z,71.66
2018-06-22T10:42:39.666Z,71.47
2018-06-22T10:43:39.766Z,70.51
2018-06-22T10:44:39.850Z,70.32
2018-06-22T10:45:40.004Z,69.93
2018-06-22T10:46:40.046Z,68.40
2018-06-22T10:47:40.142Z,69.56
2018-06-22T10:48:40.243Z,70.23
2018-06-22T10:49:40.345Z,68.40
2018-06-22T10:50:40.443Z,69.26
2018-06-22T10:51:40.590Z,68.21
2018-06-22T10:52:40.692Z,68.12
2018-06-22T10:53:40.739Z,68.21
2018-06-22T10:54:40.839Z,67.63
2018-06-22T10:55:40.930Z,69.04
2018-06-22T10:56:41.039Z,69.42
2018-06-22T10:57:41.137Z,68.46
2018-06-22T10:58:41.237Z,67.41
2018-06-22T10:59:41.350Z,68.33
2018-06-22T11:00:41.437Z,68.56
2018-06-22T11:01:41.535Z,69.04
2018-06-22T11:02:41.644Z,69.04
2018-06-22T11:03:41.744Z,69.52
2018-06-22T11:04:41.843Z,68.05
2018-06-22T11:05:42.012Z,68.43
2018-06-22T11:06:42.039Z,68.43
2018-06-22T11:07:42.138Z,68.49
2018-06-22T11:08:42.238Z,68.97
2018-06-22T11:09:42.338Z,69.35
2018-06-22T11:10:42.438Z,69.99
2018-06-22T11:11:42.534Z,70.09
2018-06-22T11:12:42.727Z,70.37
2018-06-22T11:13:42.778Z,71.58
2018-06-22T11:14:42.880Z,72.92
2018-06-22T11:15:42.980Z,72.44
2018-06-22T11:16:43.103Z,74.16
2018-06-22T11:17:43.178Z,74.30
2018-06-22T11:18:43.271Z,74.87
2018-06-22T11:19:43.385Z,72.63
2018-06-22T11:20:43.477Z,75.02
2018-06-22T11:21:43.574Z,75.51
2018-06-22T11:22:43.693Z,74.97
2018-06-22T11:23:43.785Z,73.54
2018-06-22T11:24:43.877Z,71.48
2018-06-22T11:25:43.966Z,72.44
2018-06-22T11:26:44.066Z,73.15
2018-06-22T11:27:44.162Z,72.29
2018-06-22T11:28:44.262Z,72.00
2018-06-22T11:29:44.361Z,70.21
2018-06-22T11:30:44.464Z,68.78
2018-06-22T11:31:44.556Z,68.72
2018-06-22T11:32:44.654Z,66.80
2018-06-22T11:33:44.763Z,66.83
2018-06-22T11:34:44.852Z,66.16
2018-06-22T11:35:44.957Z,65.30
2018-06-22T11:36:45.065Z,64.98
2018-06-22T11:37:45.163Z,66.55
2018-06-22T11:38:45.262Z,66.35
2018-06-22T11:39:45.361Z,66.35
2018-06-22T11:40:45.458Z,64.82
2018-06-22T11:41:45.554Z,64.25
2018-06-22T11:42:45.653Z,64.05
2018-06-22T11:43:45.749Z,63.67
2018-06-22T11:44:45.850Z,64.43
2018-06-22T11:45:45.947Z,63.76
2018-06-22T11:46:46.045Z,63.51
2018-06-22T11:47:46.145Z,63.03
2018-06-22T11:48:46.243Z,63.22
2018-06-22T11:49:46.347Z,62.93
2018-06-22T11:50:46.428Z,63.03
2018-06-22T11:51:46.547Z,63.12
2018-06-22T11:52:46.642Z,61.81
2018-06-22T11:53:46.754Z,62.19
2018-06-22T11:54:46.852Z,60.95
2018-06-22T11:55:46.937Z,61.81
2018-06-22T11:56:47.042Z,61.94
2018-06-22T11:57:47.128Z,59.54
2018-06-22T11:58:47.237Z,59.64
2018-06-22T11:59:47.340Z,59.06
2018-06-22T12:00:47.440Z,57.84
2018-06-22T12:01:47.580Z,57.45
2018-06-22T12:02:47.655Z,57.07
2018-06-22T12:03:47.740Z,57.10
2018-06-22T12:04:47.867Z,57.29
2018-06-22T12:05:47.983Z,58.15
2018-06-22T12:06:48.071Z,57.00
2018-06-22T12:07:48.171Z,56.62
2018-06-22T12:08:48.259Z,56.91
2018-06-22T12:09:48.362Z,56.71
2018-06-22T12:10:48.457Z,56.71
2018-06-22T12:11:48.549Z,56.81
2018-06-22T12:12:48.653Z,57.39
2018-06-22T12:13:48.747Z,56.45
2018-06-22T12:14:48.874Z,55.68
2018-06-22T12:15:48.972Z,56.16
2018-06-22T12:16:49.071Z,54.63
2018-06-22T12:17:49.164Z,55.98
2018-06-22T12:18:49.258Z,56.84
2018-06-22T12:19:49.350Z,54.72
2018-06-22T12:20:49.440Z,55.78
2018-06-22T12:21:49.532Z,55.15
2018-06-22T12:22:49.627Z,55.94
2018-06-22T12:23:49.728Z,55.46
2018-06-22T12:24:49.831Z,55.76
2018-06-22T12:25:49.941Z,55.85
2018-06-22T12:26:50.048Z,55.34
2018-06-22T12:27:50.143Z,56.30
2018-06-22T12:28:50.253Z,56.01
2018-06-22T12:29:50.356Z,55.63
2018-06-22T12:30:50.454Z,55.73
2018-06-22T12:31:50.548Z,56.11
2018-06-22T12:32:50.655Z,55.91
2018-06-22T12:33:50.748Z,55.73
2018-06-22T12:34:50.854Z,56.11
2018-06-22T12:35:50.958Z,55.63
2018-06-22T12:36:51.055Z,55.91
2018-06-22T12:37:51.161Z,55.85
2018-06-22T12:38:51.299Z,55.85
2018-06-22T12:39:51.394Z,55.20
2018-06-22T12:40:51.511Z,55.49
2018-06-22T12:41:51.596Z,54.91
2018-06-22T12:42:51.696Z,55.30
2018-06-22T12:43:51.789Z,54.53
2018-06-22T12:44:51.935Z,53.96
2018-06-22T12:45:51.982Z,53.66
2018-06-22T12:46:52.119Z,54.69
2018-06-22T12:47:52.215Z,55.56
2018-06-22T12:48:52.379Z,55.37
2018-06-22T12:49:52.434Z,54.79
2018-06-22T12:50:52.539Z,54.82
2018-06-22T12:51:52.635Z,54.05
2018-06-22T12:52:52.731Z,54.05
2018-06-22T12:53:52.828Z,53.78